Time;durP1;ratioP1;P1;durP2;ratioP2;P2;SDS_P1;SDS_P2;PMS_P1;PMS_P2;Temp;Humidity;BMP_temperature;BMP_pressure;BME280_temperature;BME280_humidity;BME280_pressure;Samples;Min_cycle;Max_cycle;Signal;HPM_P1;HPM_P2
2023/07/28 00:03:29;;;;;;;;;;;21.20;66.10;;;;;;10369822;28;93491;-63
2023/07/28 00:08:31;;;;;;;;;;;21.20;66.20;;;;;;10369749;28;93497;-63
2023/07/28 00:13:32;;;;;;;;;;;21.20;66.20;;;;;;10352758;28;93738;-63
2023/07/28 00:18:34;;;;;;;;;;;21.20;66.20;;;;;;10372290;28;94368;-63
2023/07/28 00:23:36;;;;;;;;;;;21.20;66.20;;;;;;10376593;28;92584;-63
2023/07/28 00:28:38;;;;;;;;;;;21.20;66.20;;;;;;10357178;28;96111;-63
2023/07/28 00:33:39;;;;;;;;;;;21.20;66.40;;;;;;10376387;28;93484;-63
2023/07/28 00:38:41;;;;;;;;;;;21.10;66.40;;;;;;10357574;28;93310;-63
2023/07/28 00:43:43;;;;;;;;;;;21.10;66.50;;;;;;10376929;28;93437;-63
2023/07/28 00:48:45;;;;;;;;;;;21.10;66.30;;;;;;10375929;28;93443;-64
2023/07/28 00:53:47;;;;;;;;;;;21.10;66.40;;;;;;10357291;28;93472;-63
2023/07/28 00:58:49;;;;;;;;;;;21.10;66.50;;;;;;10375649;28;92777;-63
2023/07/28 01:03:51;;;;;;;;;;;21.10;66.60;;;;;;10376050;28;93719;-64
2023/07/28 01:09:01;;;;;;;;;;;21.10;66.50;;;;;;10375202;28;94559;-63
2023/07/28 01:14:02;;;;;;;;;;;21.10;66.50;;;;;;10375221;28;94633;-63
2023/07/28 01:19:04;;;;;;;;;;;21.10;66.50;;;;;;10353913;28;95902;-63
2023/07/28 01:24:17;;;;;;;;;;;21.10;66.70;;;;;;10375408;28;94555;-63
2023/07/28 01:29:19;;;;;;;;;;;21.10;66.50;;;;;;10356398;28;94395;-63
2023/07/28 01:34:21;;;;;;;;;;;21.10;66.80;;;;;;10374520;28;93334;-64
2023/07/28 01:39:22;;;;;;;;;;;21.10;66.60;;;;;;10374702;28;94151;-63
2023/07/28 01:44:24;;;;;;;;;;;21.10;66.60;;;;;;10374843;28;94554;-63
2023/07/28 01:49:26;;;;;;;;;;;21.10;66.60;;;;;;10373568;28;93798;-63
2023/07/28 01:54:28;;;;;;;;;;;21.10;66.70;;;;;;10374829;28;92822;-63
2023/07/28 01:59:31;;;;;;;;;;;21.10;66.70;;;;;;10373360;28;113988;-63
2023/07/28 02:04:33;;;;;;;;;;;21.10;66.70;;;;;;10374056;28;94606;-63
2023/07/28 02:09:35;;;;;;;;;;;21.10;66.60;;;;;;10370801;28;96959;-63
2023/07/28 02:14:37;;;;;;;;;;;21.10;66.60;;;;;;10373155;28;94674;-63
2023/07/28 02:19:38;;;;;;;;;;;21.10;66.60;;;;;;10373051;28;94465;-63
2023/07/28 02:24:40;;;;;;;;;;;21.20;66.70;;;;;;10373035;28;93755;-64
2023/07/28 02:29:42;;;;;;;;;;;21.20;66.60;;;;;;10355550;28;94393;-63
2023/07/28 02:34:44;;;;;;;;;;;21.20;66.60;;;;;;10373213;28;93936;-64
2023/07/28 02:39:46;;;;;;;;;;;21.20;66.50;;;;;;10371530;28;93329;-63
2023/07/28 02:44:48;;;;;;;;;;;21.20;66.50;;;;;;10280464;28;92371;-63
2023/07/28 02:49:50;;;;;;;;;;;21.20;66.60;;;;;;10289440;28;93600;-63
2023/07/28 02:54:52;;;;;;;;;;;21.20;66.60;;;;;;10288760;28;94868;-64
2023/07/28 02:59:53;;;;;;;;;;;21.20;66.60;;;;;;10287505;28;96829;-63
2023/07/28 03:04:55;;;;;;;;;;;21.20;66.60;;;;;;10312936;28;93819;-64
2023/07/28 03:09:57;;;;;;;;;;;21.20;66.70;;;;;;10330545;28;94384;-63
2023/07/28 03:14:59;;;;;;;;;;;21.20;66.70;;;;;;10330707;28;93304;-63
2023/07/28 03:20:01;;;;;;;;;;;21.20;66.80;;;;;;10367859;28;93206;-63
2023/07/28 03:25:03;;;;;;;;;;;21.20;66.90;;;;;;10371539;28;94809;-64
2023/07/28 03:30:06;;;;;;;;;;;21.20;66.80;;;;;;10371228;28;93397;-63
2023/07/28 03:35:08;;;;;;;;;;;21.20;67.00;;;;;;10372310;28;91812;-64
2023/07/28 03:40:10;;;;;;;;;;;21.20;66.90;;;;;;10353302;28;93671;-63
2023/07/28 03:45:12;;;;;;;;;;;21.20;67.10;;;;;;10369739;28;93326;-63
2023/07/28 03:50:14;;;;;;;;;;;21.20;67.00;;;;;;10368126;28;95915;-63
2023/07/28 03:55:16;;;;;;;;;;;21.20;67.00;;;;;;10357709;28;93448;-64
2023/07/28 04:00:18;;;;;;;;;;;21.20;67.00;;;;;;10378126;28;93470;-63
2023/07/28 04:05:19;;;;;;;;;;;21.20;67.10;;;;;;10377352;28;93465;-63
2023/07/28 04:10:22;;;;;;;;;;;21.20;67.00;;;;;;10377057;28;93479;-63
2023/07/28 04:15:23;;;;;;;;;;;21.20;67.10;;;;;;10376719;28;93764;-64
2023/07/28 04:20:25;;;;;;;;;;;21.20;67.00;;;;;;10375040;28;94418;-63
2023/07/28 04:25:27;;;;;;;;;;;21.20;67.20;;;;;;10359355;28;92621;-64
2023/07/28 04:30:29;;;;;;;;;;;21.10;67.10;;;;;;10376693;28;93363;-63
2023/07/28 04:35:30;;;;;;;;;;;21.10;67.10;;;;;;10376744;28;92513;-63
2023/07/28 04:40:32;;;;;;;;;;;21.10;67.00;;;;;;10374319;28;95878;-63
2023/07/28 04:50:54;;;;;;;;;;;21.10;67.10;;;;;;10625380;22;94375;-64
2023/07/28 04:55:56;;;;;;;;;;;21.10;67.30;;;;;;10375844;28;93418;-64
2023/07/28 05:00:58;;;;;;;;;;;21.10;67.50;;;;;;10358260;28;94331;-63
2023/07/28 05:06:00;;;;;;;;;;;21.10;67.60;;;;;;10373584;28;93349;-64
2023/07/28 05:11:01;;;;;;;;;;;21.10;67.60;;;;;;10374893;28;95932;-63
2023/07/28 05:16:04;;;;;;;;;;;21.10;67.60;;;;;;10357336;28;93688;-64
2023/07/28 05:21:06;;;;;;;;;;;21.10;67.70;;;;;;10374091;28;92614;-63
2023/07/28 05:26:08;;;;;;;;;;;21.00;67.60;;;;;;10374318;28;94093;-64
2023/07/28 05:31:10;;;;;;;;;;;21.10;67.70;;;;;;10371752;28;96824;-64
2023/07/28 05:36:11;;;;;;;;;;;21.10;67.90;;;;;;10373700;28;94790;-63
2023/07/28 05:41:13;;;;;;;;;;;21.10;67.80;;;;;;10374541;28;92795;-64
2023/07/28 05:46:15;;;;;;;;;;;21.10;67.90;;;;;;10374109;28;93345;-64
2023/07/28 05:51:17;;;;;;;;;;;21.10;68.00;;;;;;10372194;28;93477;-65
2023/07/28 05:56:19;;;;;;;;;;;21.10;68.10;;;;;;10373204;28;94084;-63
2023/07/28 06:01:21;;;;;;;;;;;21.10;67.70;;;;;;10372048;28;93770;-63
2023/07/28 06:06:22;;;;;;;;;;;21.10;67.60;;;;;;10373187;28;92682;-64
2023/07/28 06:11:24;;;;;;;;;;;21.10;67.60;;;;;;10354177;28;93806;-64
2023/07/28 06:16:26;;;;;;;;;;;21.10;67.50;;;;;;10372489;28;94562;-63
2023/07/28 06:21:28;;;;;;;;;;;21.10;67.50;;;;;;10369883;28;96488;-64
2023/07/28 06:26:29;;;;;;;;;;;21.10;67.40;;;;;;10372516;28;93407;-64
2023/07/28 06:31:31;;;;;;;;;;;21.20;67.40;;;;;;10371741;28;93132;-64
2023/07/28 06:36:33;;;;;;;;;;;21.20;67.40;;;;;;10370635;28;93974;-64
2023/07/28 06:41:35;;;;;;;;;;;21.20;67.40;;;;;;10354413;28;93432;-63
2023/07/28 06:46:38;;;;;;;;;;;21.20;67.50;;;;;;10353791;28;94019;-63
2023/07/28 06:51:39;;;;;;;;;;;21.20;67.60;;;;;;10371746;28;93451;-63
2023/07/28 06:56:41;;;;;;;;;;;21.20;67.40;;;;;;10372475;28;91813;-63
2023/07/28 07:01:44;;;;;;;;;;;21.20;67.60;;;;;;10370601;28;94330;-63
2023/07/28 07:06:46;;;;;;;;;;;21.20;67.50;;;;;;10371373;28;94608;-63
2023/07/28 07:11:48;;;;;;;;;;;21.20;67.50;;;;;;10368354;28;96190;-63
2023/07/28 07:16:50;;;;;;;;;;;21.20;67.50;;;;;;10370789;28;93494;-63
2023/07/28 07:21:51;;;;;;;;;;;21.30;67.50;;;;;;10352700;28;93011;-63
2023/07/28 07:26:53;;;;;;;;;;;21.30;67.40;;;;;;10370350;28;93332;-63
2023/07/28 07:31:56;;;;;;;;;;;21.30;67.40;;;;;;10370523;28;94379;-63
2023/07/28 07:36:58;;;;;;;;;;;21.30;67.50;;;;;;10370833;28;94252;-63
2023/07/28 07:42:00;;;;;;;;;;;21.30;67.50;;;;;;10352691;28;94376;-63
2023/07/28 07:47:11;;;;;;;;;;;21.30;67.40;;;;;;10371364;28;92764;-64
2023/07/28 07:52:12;;;;;;;;;;;21.30;67.50;;;;;;10370577;28;93318;-63
2023/07/28 07:57:14;;;;;;;;;;;21.30;67.50;;;;;;10369672;28;93823;-63
2023/07/28 08:02:16;;;;;;;;;;;21.30;67.60;;;;;;10367576;28;96963;-63
2023/07/28 08:07:17;;;;;;;;;;;21.30;67.60;;;;;;10371584;28;93435;-63
2023/07/28 08:12:19;;;;;;;;;;;21.20;67.60;;;;;;10370797;28;93422;-63
2023/07/28 08:17:21;;;;;;;;;;;21.20;67.60;;;;;;10367743;28;94565;-64
2023/07/28 08:22:23;;;;;;;;;;;21.20;67.60;;;;;;10368894;28;93480;-63
2023/07/28 08:27:25;;;;;;;;;;;21.20;67.70;;;;;;10369375;28;93350;-62
2023/07/28 08:32:27;;;;;;;;;;;21.20;67.70;;;;;;10369507;28;93739;-63
2023/07/28 08:37:29;;;;;;;;;;;21.20;67.80;;;;;;10353248;28;95886;-64
2023/07/28 08:42:36;;;;;;;;;;;21.20;67.90;;;;;;10374731;28;93476;-63
2023/07/28 08:47:37;;;;;;;;;;;21.20;68.00;;;;;;10376354;28;94489;-64
2023/07/28 08:52:39;;;;;;;;;;;21.20;68.10;;;;;;10365523;28;95991;-64
2023/07/28 08:57:41;;;;;;;;;;;21.20;68.10;;;;;;10375807;28;94419;-63
2023/07/28 09:02:43;;;;;;;;;;;21.10;68.20;;;;;;10376962;28;94296;-63
2023/07/28 09:07:46;;;;;;;;;;;21.10;68.30;;;;;;10375642;28;94609;-63
2023/07/28 09:12:49;;;;;;;;;;;21.10;68.20;;;;;;10374910;28;93454;-63
2023/07/28 09:17:50;;;;;;;;;;;21.10;68.30;;;;;;10374454;28;93640;-64
2023/07/28 09:22:53;;;;;;;;;;;21.10;68.60;;;;;;10375634;28;94784;-63
2023/07/28 09:27:55;;;;;;;;;;;21.20;68.80;;;;;;10376973;28;93490;-63
2023/07/28 09:32:56;;;;;;;;;;;21.10;68.60;;;;;;10373607;28;93115;-64
2023/07/28 09:37:59;;;;;;;;;;;21.10;68.50;;;;;;10357146;28;94527;-63
2023/07/28 09:43:01;;;;;;;;;;;21.10;68.50;;;;;;10371754;28;96272;-63
2023/07/28 09:48:04;;;;;;;;;;;21.10;68.40;;;;;;10356736;28;94479;-63
2023/07/28 09:53:08;;;;;;;;;;;21.10;68.50;;;;;;10374640;28;94477;-63
2023/07/28 09:58:12;;;;;;;;;;;21.20;68.50;;;;;;10374114;28;94067;-63
2023/07/28 10:03:14;;;;;;;;;;;21.20;68.50;;;;;;10374090;28;94615;-63
2023/07/28 10:08:16;;;;;;;;;;;21.20;68.60;;;;;;10373184;28;93484;-63
2023/07/28 10:13:21;;;;;;;;;;;21.20;68.50;;;;;;10373223;28;94549;-63
2023/07/28 10:18:25;;;;;;;;;;;21.20;68.60;;;;;;10373935;28;93679;-63
2023/07/28 10:23:27;;;;;;;;;;;21.20;68.50;;;;;;10372993;28;93552;-63
2023/07/28 10:28:31;;;;;;;;;;;21.20;68.60;;;;;;10338809;28;93354;-63
2023/07/28 10:33:35;;;;;;;;;;;21.20;68.60;;;;;;10370279;28;96760;-63
2023/07/28 10:38:40;;;;;;;;;;;21.20;68.60;;;;;;10372924;28;94596;-63
2023/07/28 10:43:42;;;;;;;;;;;21.30;68.50;;;;;;10371875;28;93476;-63
2023/07/28 10:48:47;;;;;;;;;;;21.30;68.30;;;;;;10370803;28;93449;-63
2023/07/28 10:53:54;;;;;;;;;;;21.40;68.20;;;;;;10371505;28;94406;-63
2023/07/28 10:59:00;;;;;;;;;;;21.40;68.10;;;;;;10372390;28;94826;-64
2023/07/28 11:04:11;;;;;;;;;;;21.40;68.00;;;;;;10353263;28;93559;-63
2023/07/28 11:09:14;;;;;;;;;;;21.40;67.90;;;;;;10372006;28;93107;-63
2023/07/28 11:14:17;;;;;;;;;;;21.50;67.90;;;;;;10371695;28;94069;-63
2023/07/28 11:19:24;;;;;;;;;;;21.50;67.80;;;;;;10369369;28;94587;-63
2023/07/28 11:24:26;;;;;;;;;;;21.50;67.70;;;;;;10368713;28;96100;-63
2023/07/28 11:29:28;;;;;;;;;;;21.50;67.70;;;;;;10370659;28;93471;-63
2023/07/28 11:34:35;;;;;;;;;;;21.50;67.70;;;;;;10370695;28;93387;-63
2023/07/28 11:39:37;;;;;;;;;;;21.50;67.60;;;;;;10352600;28;93369;-63
2023/07/28 11:44:38;;;;;;;;;;;21.60;67.70;;;;;;10352592;28;93416;-63
2023/07/28 11:49:50;;;;;;;;;;;21.60;67.60;;;;;;10369596;28;94521;-63
2023/07/28 11:54:53;;;;;;;;;;;21.60;67.60;;;;;;10369786;28;93750;-63
2023/07/28 11:59:54;;;;;;;;;;;21.60;67.70;;;;;;10371115;28;92693;-64
2023/07/28 12:04:58;;;;;;;;;;;21.60;67.60;;;;;;10369512;28;93390;-63
2023/07/28 12:10:05;;;;;;;;;;;21.60;67.60;;;;;;10351990;28;94291;-63
2023/07/28 12:15:27;;;;;;;;;;;21.60;67.70;;;;;;10329094;28;95724;-63
2023/07/28 12:20:38;;;;;;;;;;;21.60;67.70;;;;;;10334745;28;94070;-63
2023/07/28 12:25:41;;;;;;;;;;;21.70;67.80;;;;;;10335897;28;92922;-63
2023/07/28 12:30:43;;;;;;;;;;;21.60;67.70;;;;;;10335089;28;94473;-63
2023/07/28 12:35:45;;;;;;;;;;;21.60;67.80;;;;;;10334960;28;93039;-63
2023/07/28 12:40:50;;;;;;;;;;;21.70;67.80;;;;;;10335432;28;93378;-64
2023/07/28 12:45:55;;;;;;;;;;;21.60;68.80;;;;;;10335471;28;94424;-63
2023/07/28 12:51:00;;;;;;;;;;;21.60;67.80;;;;;;10334136;28;94147;-63
2023/07/28 12:56:05;;;;;;;;;;;21.60;67.80;;;;;;10332548;28;93605;-63
2023/07/28 13:01:08;;;;;;;;;;;21.60;67.90;;;;;;10316966;28;94413;-64
2023/07/28 13:06:09;;;;;;;;;;;21.60;67.90;;;;;;10331488;28;95809;-63
2023/07/28 13:11:14;;;;;;;;;;;21.60;67.80;;;;;;10333550;28;93463;-63
2023/07/28 13:16:18;;;;;;;;;;;21.60;67.90;;;;;;10333931;28;94334;-63
2023/07/28 13:21:20;;;;;;;;;;;21.60;67.80;;;;;;10334046;28;93655;-63
2023/07/28 13:26:22;;;;;;;;;;;21.70;67.90;;;;;;10333162;28;92789;-63
2023/07/28 13:31:24;;;;;;;;;;;21.60;67.90;;;;;;10334266;28;94430;-64
2023/07/28 13:36:26;;;;;;;;;;;21.60;67.90;;;;;;10333653;28;93513;-63
2023/07/28 13:41:28;;;;;;;;;;;21.70;68.10;;;;;;10334015;28;92644;-64
2023/07/28 13:46:31;;;;;;;;;;;21.70;68.00;;;;;;10333701;28;93712;-63
2023/07/28 13:51:32;;;;;;;;;;;21.70;67.90;;;;;;10331329;28;93781;-63
2023/07/28 13:56:54;;;;;;;;;;;21.70;67.90;;;;;;10330588;28;94969;-63
2023/07/28 14:01:59;;;;;;;;;;;21.70;67.90;;;;;;10332325;28;93406;-63
2023/07/28 14:07:01;;;;;;;;;;;21.70;67.80;;;;;;10332743;28;93278;-63
2023/07/28 14:12:03;;;;;;;;;;;21.70;67.80;;;;;;10331869;28;93478;-63
2023/07/28 14:17:05;;;;;;;;;;;21.70;67.80;;;;;;10332910;28;93617;-63
2023/07/28 14:22:08;;;;;;;;;;;21.70;67.80;;;;;;10331909;28;94611;-63
2023/07/28 14:27:10;;;;;;;;;;;21.70;67.70;;;;;;10332042;28;92682;-64
2023/07/28 14:32:11;;;;;;;;;;;21.70;67.60;;;;;;10333229;28;94018;-63
2023/07/28 14:37:13;;;;;;;;;;;21.70;67.80;;;;;;10329588;28;93451;-63
2023/07/28 14:42:15;;;;;;;;;;;21.70;67.70;;;;;;10332592;28;94435;-63
2023/07/28 14:47:17;;;;;;;;;;;21.70;67.60;;;;;;10327315;28;95716;-64
2023/07/28 14:52:19;;;;;;;;;;;21.80;67.60;;;;;;10331037;28;94090;-63
2023/07/28 14:57:21;;;;;;;;;;;21.80;67.60;;;;;;10329638;28;93475;-63
2023/07/28 15:02:38;;;;;;;;;;;21.80;67.50;;;;;;10330188;28;94409;-63
2023/07/28 15:07:40;;;;;;;;;;;21.80;67.50;;;;;;10330426;28;94335;-64
2023/07/28 15:12:43;;;;;;;;;;;21.80;67.40;;;;;;10372079;28;94716;-63
2023/07/28 15:17:46;;;;;;;;;;;21.80;67.50;;;;;;10371124;28;93552;-63
2023/07/28 15:22:48;;;;;;;;;;;21.80;67.40;;;;;;10338734;28;93929;-63
2023/07/28 15:27:49;;;;;;;;;;;21.80;67.40;;;;;;10371700;28;93442;-63
2023/07/28 15:32:51;;;;;;;;;;;21.80;67.40;;;;;;10369987;28;93652;-63
2023/07/28 15:37:53;;;;;;;;;;;21.80;67.30;;;;;;10353255;28;95990;-63
2023/07/28 15:42:55;;;;;;;;;;;21.80;67.30;;;;;;10371059;28;92944;-63
2023/07/28 15:47:56;;;;;;;;;;;21.80;67.20;;;;;;10371431;28;92520;-63
2023/07/28 15:52:58;;;;;;;;;;;21.90;67.30;;;;;;10378872;28;94473;-63
2023/07/28 15:58:00;;;;;;;;;;;21.90;67.30;;;;;;10378316;28;94084;-63
2023/07/28 16:03:02;;;;;;;;;;;21.90;67.30;;;;;;10356935;28;94481;-63
2023/07/28 16:08:05;;;;;;;;;;;21.90;67.30;;;;;;10377606;28;94426;-63
2023/07/28 16:13:07;;;;;;;;;;;21.90;67.20;;;;;;10359695;28;92307;-64
2023/07/28 16:18:10;;;;;;;;;;;21.90;67.20;;;;;;10376516;28;93493;-63
2023/07/28 16:23:12;;;;;;;;;;;21.90;67.30;;;;;;10357685;28;95024;-63
2023/07/28 16:28:14;;;;;;;;;;;21.90;67.20;;;;;;10373806;28;94968;-64
2023/07/28 16:33:16;;;;;;;;;;;21.90;67.10;;;;;;10376573;28;93571;-63
2023/07/28 16:38:17;;;;;;;;;;;21.90;67.20;;;;;;10358093;28;93385;-63
2023/07/28 16:43:19;;;;;;;;;;;21.90;67.10;;;;;;10376812;28;93459;-63
2023/07/28 16:48:21;;;;;;;;;;;21.90;67.20;;;;;;10374282;28;92671;-63
2023/07/28 16:53:24;;;;;;;;;;;21.90;67.20;;;;;;10376335;28;95431;-63
2023/07/28 16:58:25;;;;;;;;;;;21.90;67.20;;;;;;10376194;28;93447;-64
2023/07/28 17:03:27;;;;;;;;;;;21.90;67.20;;;;;;10374399;28;92716;-63
2023/07/28 17:08:29;;;;;;;;;;;21.80;67.10;;;;;;10341866;28;94318;-63
2023/07/28 17:13:31;;;;;;;;;;;21.80;67.30;;;;;;10375249;28;94539;-63
2023/07/28 17:18:33;;;;;;;;;;;21.80;67.30;;;;;;10371713;28;95805;-64
2023/07/28 17:23:34;;;;;;;;;;;21.80;67.20;;;;;;10375541;28;94394;-64
2023/07/28 17:28:36;;;;;;;;;;;21.80;67.30;;;;;;10374919;28;94650;-63
2023/07/28 17:33:38;;;;;;;;;;;21.80;67.30;;;;;;10356970;28;93466;-63
2023/07/28 17:38:40;;;;;;;;;;;21.80;67.40;;;;;;10374921;28;93484;-63
2023/07/28 17:43:43;;;;;;;;;;;21.70;67.40;;;;;;10374898;28;95008;-63
2023/07/28 17:48:44;;;;;;;;;;;21.70;67.40;;;;;;10372870;28;94574;-64
2023/07/28 17:53:46;;;;;;;;;;;21.70;67.50;;;;;;10374658;28;92708;-64
2023/07/28 17:58:48;;;;;;;;;;;21.70;67.50;;;;;;10373015;28;94773;-63
2023/07/28 18:03:53;;;;;;;;;;;21.70;67.60;;;;;;10373984;28;94362;-63
2023/07/28 18:08:55;;;;;;;;;;;21.70;67.60;;;;;;10370777;28;95846;-63
2023/07/28 18:13:57;;;;;;;;;;;21.70;67.60;;;;;;10355128;28;93450;-63
2023/07/28 18:18:59;;;;;;;;;;;21.70;67.70;;;;;;10356170;28;92522;-63
2023/07/28 18:24:01;;;;;;;;;;;21.70;67.60;;;;;;10373022;28;93700;-63
2023/07/28 18:29:03;;;;;;;;;;;21.70;67.70;;;;;;10372568;28;94033;-63
2023/07/28 18:34:04;;;;;;;;;;;21.70;67.80;;;;;;10373079;28;93935;-63
2023/07/28 18:39:06;;;;;;;;;;;21.70;67.70;;;;;;10372436;28;93475;-63
2023/07/28 18:44:08;;;;;;;;;;;21.70;67.70;;;;;;10373213;28;93796;-63
2023/07/28 18:49:10;;;;;;;;;;;21.70;67.60;;;;;;10372218;28;94479;-63
2023/07/28 18:54:11;;;;;;;;;;;21.70;67.70;;;;;;10372787;28;94397;-64
2023/07/28 18:59:13;;;;;;;;;;;21.70;67.70;;;;;;10351481;28;96959;-64
2023/07/28 19:04:15;;;;;;;;;;;21.70;67.80;;;;;;10372687;28;94450;-64
2023/07/28 19:09:17;;;;;;;;;;;21.70;67.70;;;;;;10354615;28;93434;-63
2023/07/28 19:14:21;;;;;;;;;;;21.70;67.90;;;;;;10371821;28;94656;-64
2023/07/28 19:19:23;;;;;;;;;;;21.70;67.80;;;;;;10371349;28;94605;-63
2023/07/28 19:24:25;;;;;;;;;;;21.70;67.80;;;;;;10371233;28;94896;-64
2023/07/28 19:29:27;;;;;;;;;;;21.70;67.80;;;;;;10371564;28;94338;-63
2023/07/28 19:34:30;;;;;;;;;;;21.70;67.80;;;;;;10371440;28;92721;-63
2023/07/28 19:39:32;;;;;;;;;;;21.70;67.70;;;;;;10353043;28;92934;-63
2023/07/28 19:44:34;;;;;;;;;;;21.70;67.70;;;;;;10370297;28;94416;-63
2023/07/28 19:49:43;;;;;;;;;;;21.70;67.80;;;;;;10350906;28;95868;-64
2023/07/28 19:54:48;;;;;;;;;;;21.70;67.80;;;;;;10370258;28;94524;-63
2023/07/28 19:59:50;;;;;;;;;;;21.70;67.80;;;;;;10370747;28;94380;-63
2023/07/28 20:04:52;;;;;;;;;;;21.70;67.90;;;;;;10369962;28;93472;-63
2023/07/28 20:09:54;;;;;;;;;;;21.70;68.00;;;;;;10369883;28;93359;-63
2023/07/28 20:14:58;;;;;;;;;;;21.70;67.80;;;;;;10369779;28;94415;-63
2023/07/28 20:20:00;;;;;;;;;;;21.70;67.80;;;;;;10369425;28;93579;-63
2023/07/28 20:25:02;;;;;;;;;;;21.80;67.80;;;;;;10370077;28;92783;-63
2023/07/28 20:30:03;;;;;;;;;;;21.80;67.80;;;;;;10369316;28;93437;-63
2023/07/28 20:35:05;;;;;;;;;;;21.80;67.80;;;;;;10371895;28;93747;-63
2023/07/28 20:40:07;;;;;;;;;;;21.80;67.70;;;;;;10374774;28;96312;-63
2023/07/28 20:45:10;;;;;;;;;;;21.80;67.70;;;;;;10375969;28;93441;-63
2023/07/28 20:50:12;;;;;;;;;;;21.80;68.80;;;;;;10357722;28;93403;-63
2023/07/28 20:55:14;;;;;;;;;;;21.80;67.70;;;;;;10375487;28;93564;-63
2023/07/28 21:00:16;;;;;;;;;;;21.80;67.80;;;;;;10375517;28;94414;-63
2023/07/28 21:05:17;;;;;;;;;;;21.80;67.80;;;;;;10356890;28;94426;-63
2023/07/28 21:10:19;;;;;;;;;;;21.80;67.80;;;;;;10375590;28;94405;-63
2023/07/28 21:15:21;;;;;;;;;;;21.80;67.80;;;;;;10375510;28;93995;-63
2023/07/28 21:20:23;;;;;;;;;;;21.80;67.80;;;;;;10374377;28;93542;-63
2023/07/28 21:25:25;;;;;;;;;;;21.80;68.00;;;;;;10375172;28;94542;-63
2023/07/28 21:30:26;;;;;;;;;;;21.70;67.90;;;;;;10372142;28;96852;-63
2023/07/28 21:35:29;;;;;;;;;;;21.70;68.00;;;;;;10375054;28;92853;-63
2023/07/28 21:40:31;;;;;;;;;;;21.70;67.80;;;;;;10374923;28;93292;-64
2023/07/28 21:45:33;;;;;;;;;;;21.70;67.90;;;;;;10373636;28;94435;-64
2023/07/28 21:50:34;;;;;;;;;;;21.70;68.00;;;;;;10354602;28;93763;-64
2023/07/28 21:55:36;;;;;;;;;;;21.70;68.00;;;;;;10373335;28;93649;-63
2023/07/28 22:00:38;;;;;;;;;;;21.70;68.10;;;;;;10374195;28;93926;-64
2023/07/28 22:05:40;;;;;;;;;;;21.70;68.10;;;;;;10374292;28;93784;-64
2023/07/28 22:10:42;;;;;;;;;;;21.60;68.10;;;;;;10373146;28;93633;-63
2023/07/28 22:15:44;;;;;;;;;;;21.60;68.10;;;;;;10356158;28;94447;-63
2023/07/28 22:20:45;;;;;;;;;;;21.60;68.10;;;;;;10371521;28;95898;-63
2023/07/28 22:25:47;;;;;;;;;;;21.60;68.10;;;;;;10373401;28;95282;-63
2023/07/28 22:30:49;;;;;;;;;;;21.60;68.10;;;;;;10355261;28;93418;-63
2023/07/28 22:35:51;;;;;;;;;;;21.60;68.20;;;;;;10355716;28;94712;-63
2023/07/28 22:40:52;;;;;;;;;;;21.60;68.30;;;;;;10372533;28;94410;-63
2023/07/28 22:45:55;;;;;;;;;;;21.60;68.30;;;;;;10371332;28;92892;-63
2023/07/28 22:50:57;;;;;;;;;;;21.60;68.30;;;;;;10372457;28;94544;-63
2023/07/28 22:55:59;;;;;;;;;;;21.60;68.40;;;;;;10337788;28;92727;-64
2023/07/28 23:01:01;;;;;;;;;;;21.60;68.30;;;;;;10369903;28;93497;-64
2023/07/28 23:06:03;;;;;;;;;;;21.60;68.30;;;;;;10371160;28;93700;-63
2023/07/28 23:11:05;;;;;;;;;;;21.60;68.20;;;;;;10350812;28;95187;-64
2023/07/28 23:16:06;;;;;;;;;;;21.60;68.20;;;;;;10371463;28;93445;-64
2023/07/28 23:21:08;;;;;;;;;;;21.60;68.20;;;;;;10372436;28;94400;-64
2023/07/28 23:26:10;;;;;;;;;;;21.60;68.20;;;;;;10370422;28;93561;-64
2023/07/28 23:31:15;;;;;;;;;;;21.60;68.10;;;;;;10371060;28;93500;-64
2023/07/28 23:36:17;;;;;;;;;;;21.60;68.10;;;;;;10353904;28;94818;-64
2023/07/28 23:41:19;;;;;;;;;;;21.60;68.00;;;;;;10371265;28;94397;-64
2023/07/28 23:46:21;;;;;;;;;;;21.60;68.00;;;;;;10371143;28;92745;-64
2023/07/28 23:51:23;;;;;;;;;;;21.60;67.90;;;;;;10353091;28;94656;-63
2023/07/28 23:56:25;;;;;;;;;;;21.60;67.80;;;;;;10352946;28;94435;-63
